createdAt,value
2022-08-17T00:02:25.544Z,17.60
2022-08-17T00:04:54.892Z,17.70
2022-08-17T00:07:21.948Z,17.70
2022-08-17T00:09:48.804Z,17.70
2022-08-17T00:12:40.799Z,17.70
2022-08-17T00:15:05.203Z,17.60
2022-08-17T00:17:32.027Z,17.70
2022-08-17T00:20:00.263Z,17.70
2022-08-17T00:22:33.776Z,17.70
2022-08-17T00:25:09.409Z,17.70
2022-08-17T00:27:36.972Z,17.80
2022-08-17T00:30:06.740Z,17.80
2022-08-17T00:33:15.480Z,17.80
2022-08-17T00:35:34.289Z,17.80
2022-08-17T00:38:01.222Z,17.70
2022-08-17T00:40:44.447Z,17.70
2022-08-17T00:43:33.862Z,17.70
2022-08-17T00:46:03.628Z,17.60
2022-08-17T00:48:31.426Z,17.50
2022-08-17T00:51:09.418Z,17.50
2022-08-17T00:53:41.841Z,17.50
2022-08-17T00:56:14.674Z,17.40
2022-08-17T00:58:41.705Z,17.40
2022-08-17T01:01:10.647Z,17.40
2022-08-17T01:03:39.195Z,17.40
2022-08-17T01:06:08.082Z,17.40
2022-08-17T01:08:38.195Z,17.30
2022-08-17T01:11:06.139Z,17.30
2022-08-17T01:13:44.291Z,17.40
2022-08-17T01:16:22.980Z,17.40
2022-08-17T01:18:54.309Z,17.40
2022-08-17T01:21:24.940Z,17.30
2022-08-17T01:23:51.771Z,17.30
2022-08-17T01:26:19.450Z,17.30
2022-08-17T01:28:54.067Z,17.30
2022-08-17T01:31:24.650Z,17.30
2022-08-17T01:33:51.665Z,17.30
2022-08-17T01:36:18.723Z,17.30
2022-08-17T01:38:45.607Z,17.30
2022-08-17T01:41:16.527Z,17.30
2022-08-17T01:43:57.012Z,17.30
2022-08-17T01:46:31.274Z,17.30
2022-08-17T01:48:58.629Z,17.30
2022-08-17T01:51:32.552Z,17.30
2022-08-17T01:54:06.565Z,17.30
2022-08-17T01:56:35.689Z,17.30
2022-08-17T01:59:02.917Z,17.20
2022-08-17T02:01:32.502Z,17.20
2022-08-17T02:04:01.201Z,17.20
2022-08-17T02:06:45.350Z,17.20
2022-08-17T02:09:29.607Z,17.20
2022-08-17T02:11:58.937Z,17.10
2022-08-17T02:14:26.480Z,17.20
2022-08-17T02:16:53.935Z,17.20
2022-08-17T02:19:21.913Z,17.20
2022-08-17T02:21:51.750Z,17.20
2022-08-17T02:25:00.025Z,17.20
2022-08-17T02:27:15.637Z,17.20
2022-08-17T02:29:42.443Z,17.20
2022-08-17T02:32:25.289Z,17.20
2022-08-17T02:34:58.461Z,17.10
2022-08-17T02:37:26.584Z,17.10
2022-08-17T02:39:53.716Z,17.10
2022-08-17T02:42:39.791Z,17.10
2022-08-17T02:45:12.881Z,17.00
2022-08-17T02:47:40.791Z,17.10
2022-08-17T02:50:10.776Z,17.10
2022-08-17T02:52:43.628Z,17.00
2022-08-17T02:55:33.001Z,17.00
2022-08-17T02:58:00.603Z,17.00
2022-08-17T03:00:34.074Z,16.90
2022-08-17T03:03:02.329Z,16.90
2022-08-17T03:05:31.975Z,16.90
2022-08-17T03:07:58.944Z,16.90
2022-08-17T03:10:26.554Z,16.80
2022-08-17T03:12:54.175Z,16.80
2022-08-17T03:15:24.992Z,16.80
2022-08-17T03:17:53.524Z,16.80
2022-08-17T03:20:21.275Z,16.80
2022-08-17T03:22:53.656Z,16.80
2022-08-17T03:25:30.534Z,16.80
2022-08-17T03:27:57.655Z,16.90
2022-08-17T03:30:26.063Z,16.90
2022-08-17T03:32:56.350Z,16.80
2022-08-17T03:35:26.078Z,16.80
2022-08-17T03:38:00.498Z,16.70
2022-08-17T03:40:36.978Z,16.70
2022-08-17T03:43:16.812Z,16.70
2022-08-17T03:46:02.431Z,16.70
2022-08-17T03:48:47.836Z,16.60
2022-08-17T03:51:38.845Z,16.60
2022-08-17T03:54:25.631Z,16.70
2022-08-17T03:57:12.938Z,16.70
2022-08-17T03:59:40.540Z,16.80
2022-08-17T04:02:33.820Z,16.80
2022-08-17T04:05:01.070Z,16.70
2022-08-17T04:07:29.979Z,16.70
2022-08-17T04:09:58.105Z,16.70
2022-08-17T04:12:25.936Z,16.70
2022-08-17T04:14:55.035Z,16.70
2022-08-17T04:17:27.839Z,16.70
2022-08-17T04:19:55.618Z,16.70
2022-08-17T04:22:32.918Z,16.80
2022-08-17T04:25:15.145Z,16.80
2022-08-17T04:27:41.992Z,16.80
2022-08-17T04:30:09.710Z,16.70
2022-08-17T04:33:07.329Z,16.70
2022-08-17T04:35:44.174Z,16.60
2022-08-17T04:38:14.047Z,16.60
2022-08-17T04:40:59.567Z,16.60
2022-08-17T04:43:27.800Z,16.60
2022-08-17T04:45:58.659Z,16.60
2022-08-17T04:48:36.400Z,16.60
2022-08-17T04:51:14.136Z,16.70
2022-08-17T04:53:42.791Z,16.70
2022-08-17T04:56:11.836Z,16.70
2022-08-17T04:58:46.216Z,16.70
2022-08-17T05:01:13.933Z,16.70
2022-08-17T05:03:41.924Z,16.80
2022-08-17T05:06:09.545Z,16.80
2022-08-17T05:08:36.464Z,16.80
2022-08-17T05:11:03.875Z,16.90
2022-08-17T05:13:30.836Z,16.90
2022-08-17T05:16:03.561Z,17.00
2022-08-17T05:18:30.703Z,17.00
2022-08-17T05:20:57.772Z,17.00
2022-08-17T05:23:26.184Z,17.10
2022-08-17T05:25:57.088Z,17.10
2022-08-17T05:28:29.923Z,17.10
2022-08-17T05:30:59.338Z,17.00
2022-08-17T05:33:29.747Z,17.00
2022-08-17T05:35:58.938Z,17.10
2022-08-17T05:38:28.324Z,17.10
2022-08-17T05:40:56.503Z,17.10
2022-08-17T05:43:27.643Z,17.10
2022-08-17T05:46:20.591Z,17.20
2022-08-17T05:48:54.170Z,17.30
2022-08-17T05:51:26.799Z,17.30
2022-08-17T05:54:31.114Z,17.40
2022-08-17T05:57:25.686Z,17.50
2022-08-17T06:00:20.384Z,17.60
2022-08-17T06:03:13.656Z,17.60
2022-08-17T06:05:54.297Z,17.70
2022-08-17T06:08:44.722Z,17.70
2022-08-17T06:11:31.316Z,17.90
2022-08-17T06:14:10.680Z,18.10
2022-08-17T06:16:43.578Z,18.20
2022-08-17T06:19:25.294Z,18.30
2022-08-17T06:21:54.864Z,18.30
2022-08-17T06:24:39.021Z,18.40
2022-08-17T06:27:27.559Z,18.70
2022-08-17T06:30:00.553Z,19.00
2022-08-17T06:32:28.404Z,19.30
2022-08-17T06:34:56.084Z,19.60
2022-08-17T06:37:42.198Z,19.80
2022-08-17T06:40:49.723Z,20.00
2022-08-17T06:43:35.220Z,20.30
2022-08-17T06:46:27.478Z,20.50
2022-08-17T06:48:57.059Z,20.60
2022-08-17T06:51:34.636Z,20.70
2022-08-17T06:54:10.494Z,20.70
2022-08-17T06:56:53.996Z,20.90
2022-08-17T06:59:54.827Z,21.00
2022-08-17T07:02:52.487Z,21.20
2022-08-17T07:05:24.209Z,21.40
2022-08-17T07:08:04.135Z,21.50
2022-08-17T07:10:52.736Z,21.70
2022-08-17T07:13:26.144Z,21.90
2022-08-17T07:15:59.463Z,22.20
2022-08-17T07:18:29.723Z,22.40
2022-08-17T07:21:07.488Z,22.60
2022-08-17T07:23:54.652Z,22.80
2022-08-17T07:26:24.299Z,22.90
2022-08-17T07:28:51.615Z,23.00
2022-08-17T07:31:18.477Z,23.10
2022-08-17T07:34:02.593Z,23.20
2022-08-17T07:36:33.892Z,23.20
2022-08-17T07:39:02.403Z,23.30
2022-08-17T07:41:53.310Z,23.40
2022-08-17T07:44:21.941Z,23.40
2022-08-17T07:47:11.963Z,23.40
2022-08-17T07:49:46.486Z,23.50
2022-08-17T07:52:50.716Z,23.50
2022-08-17T07:55:31.070Z,23.70
2022-08-17T07:58:00.159Z,23.70
2022-08-17T08:00:32.356Z,23.70
2022-08-17T08:03:23.731Z,23.70
2022-08-17T08:05:57.406Z,23.60
2022-08-17T08:08:37.486Z,23.50
2022-08-17T08:11:11.099Z,23.60
2022-08-17T08:13:45.539Z,23.60
2022-08-17T08:16:29.158Z,23.50
2022-08-17T08:18:59.441Z,23.60
2022-08-17T08:21:31.842Z,23.70
2022-08-17T08:24:20.117Z,23.70
2022-08-17T08:27:01.559Z,23.70
2022-08-17T08:30:00.664Z,23.60
2022-08-17T08:32:39.182Z,23.60
2022-08-17T08:35:30.884Z,23.60
2022-08-17T08:38:30.883Z,23.60
2022-08-17T08:41:06.703Z,23.70
2022-08-17T08:43:54.812Z,23.70
2022-08-17T08:46:29.515Z,23.80
2022-08-17T08:49:39.298Z,24.00
2022-08-17T08:52:36.233Z,24.10
2022-08-17T08:55:14.991Z,24.20
2022-08-17T08:57:48.682Z,24.40
2022-08-17T09:00:18.013Z,24.30
2022-08-17T09:03:32.415Z,24.00
2022-08-17T09:06:38.657Z,23.80
2022-08-17T09:09:14.915Z,23.60
2022-08-17T09:12:01.198Z,23.30
2022-08-17T09:14:46.638Z,23.20
2022-08-17T09:17:20.623Z,23.10
2022-08-17T09:20:00.194Z,23.20
2022-08-17T09:22:38.478Z,23.40
2022-08-17T09:25:27.963Z,23.60
2022-08-17T09:28:03.746Z,23.90
2022-08-17T09:30:50.575Z,24.20
2022-08-17T09:33:26.129Z,24.40
2022-08-17T09:35:58.495Z,24.70
2022-08-17T09:38:41.626Z,24.90
2022-08-17T09:41:28.440Z,25.00
2022-08-17T09:44:22.565Z,25.00
2022-08-17T09:47:10.039Z,24.90
2022-08-17T09:49:55.048Z,24.90
2022-08-17T09:52:25.895Z,25.00
2022-08-17T09:54:55.041Z,25.10
2022-08-17T09:57:44.644Z,25.10
2022-08-17T10:00:25.145Z,25.20
2022-08-17T10:03:19.878Z,25.30
2022-08-17T10:05:59.406Z,25.50
2022-08-17T10:08:39.694Z,25.60
2022-08-17T10:11:45.691Z,25.80
2022-08-17T10:14:55.026Z,25.90
2022-08-17T10:17:59.347Z,25.70
2022-08-17T10:20:30.154Z,25.70
2022-08-17T10:23:19.822Z,25.80
2022-08-17T10:26:13.161Z,25.80
2022-08-17T10:28:55.614Z,25.90
2022-08-17T10:31:38.863Z,26.00
2022-08-17T10:34:11.678Z,26.10
2022-08-17T10:36:54.719Z,26.30
2022-08-17T10:39:52.779Z,26.30
2022-08-17T10:42:34.950Z,26.30
2022-08-17T10:45:15.396Z,26.30
2022-08-17T10:48:05.699Z,26.30
2022-08-17T10:51:00.094Z,25.80
2022-08-17T10:53:33.053Z,25.40
2022-08-17T10:56:12.350Z,25.40
2022-08-17T10:58:50.633Z,25.50
2022-08-17T11:01:18.155Z,25.70
2022-08-17T11:03:55.042Z,25.60
2022-08-17T11:06:47.735Z,25.70
2022-08-17T11:09:30.735Z,25.80
2022-08-17T11:12:19.723Z,26.00
2022-08-17T11:14:55.702Z,26.20
2022-08-17T11:17:45.759Z,26.40
2022-08-17T11:20:18.546Z,26.40
2022-08-17T11:23:10.135Z,26.40
2022-08-17T11:25:41.994Z,26.40
2022-08-17T11:28:24.612Z,26.40
2022-08-17T11:30:53.834Z,26.40
2022-08-17T11:33:44.905Z,26.40
2022-08-17T11:36:31.584Z,26.40
2022-08-17T11:39:23.401Z,26.40
2022-08-17T11:42:04.785Z,26.40
2022-08-17T11:44:52.680Z,26.40
2022-08-17T11:48:27.157Z,26.40
2022-08-17T11:51:34.663Z,26.50
2022-08-17T11:54:32.190Z,26.50
2022-08-17T11:57:21.391Z,26.40
2022-08-17T11:59:48.374Z,26.40
2022-08-17T12:02:31.752Z,26.30
2022-08-17T12:05:17.072Z,26.20
2022-08-17T12:07:52.418Z,26.30
2022-08-17T12:10:24.185Z,26.40
2022-08-17T12:12:53.988Z,26.50
2022-08-17T12:15:37.309Z,26.50
2022-08-17T12:18:04.367Z,26.50
2022-08-17T12:20:39.573Z,26.50
2022-08-17T12:23:18.025Z,26.50
2022-08-17T12:25:52.479Z,26.70
2022-08-17T12:28:32.046Z,26.90
2022-08-17T12:31:04.011Z,26.90
2022-08-17T12:33:31.430Z,26.80
2022-08-17T12:36:05.242Z,26.80
2022-08-17T12:38:36.156Z,27.00
2022-08-17T12:41:24.553Z,26.90
2022-08-17T12:44:02.278Z,27.00
2022-08-17T12:46:33.662Z,27.20
2022-08-17T12:49:15.541Z,27.30
2022-08-17T12:51:44.525Z,27.50
2022-08-17T12:54:24.153Z,27.50
2022-08-17T12:56:51.123Z,27.50
2022-08-17T12:59:30.463Z,27.50
2022-08-17T13:01:59.202Z,27.40
2022-08-17T13:04:26.526Z,27.50
2022-08-17T13:06:59.779Z,27.40
2022-08-17T13:09:35.922Z,27.20
2022-08-17T13:12:07.647Z,26.90
2022-08-17T13:14:35.346Z,27.00
2022-08-17T13:17:09.705Z,27.10
2022-08-17T13:19:49.519Z,27.40
2022-08-17T13:22:21.663Z,27.60
2022-08-17T13:24:55.071Z,27.70
2022-08-17T13:27:25.073Z,27.80
2022-08-17T13:29:57.246Z,28.00
2022-08-17T13:32:44.098Z,28.10
2022-08-17T13:35:39.513Z,28.20
2022-08-17T13:38:10.935Z,28.00
2022-08-17T13:40:56.062Z,28.00
2022-08-17T13:43:58.644Z,27.90
2022-08-17T13:46:31.316Z,28.00
2022-08-17T13:49:11.629Z,28.10
2022-08-17T13:51:46.548Z,28.10
2022-08-17T13:54:33.251Z,28.00
2022-08-17T13:57:07.114Z,27.90
2022-08-17T13:59:54.513Z,27.70
2022-08-17T14:02:26.085Z,27.70
2022-08-17T14:04:55.836Z,27.70
2022-08-17T14:07:35.880Z,27.60
2022-08-17T14:10:17.334Z,27.70
2022-08-17T14:12:45.641Z,27.70
2022-08-17T14:15:14.865Z,27.90
2022-08-17T14:17:41.760Z,28.00
2022-08-17T14:20:11.781Z,28.00
2022-08-17T14:22:43.245Z,27.90
2022-08-17T14:25:12.376Z,27.90
2022-08-17T14:27:51.913Z,27.90
2022-08-17T14:30:22.425Z,28.00
2022-08-17T14:32:51.769Z,28.00
2022-08-17T14:35:22.316Z,28.00
2022-08-17T14:37:49.968Z,27.80
2022-08-17T14:40:20.796Z,27.50
2022-08-17T14:42:48.263Z,27.30
2022-08-17T14:45:30.132Z,27.40
2022-08-17T14:48:01.305Z,27.40
2022-08-17T14:50:28.215Z,27.40
2022-08-17T14:52:58.084Z,27.40
2022-08-17T14:55:26.137Z,27.20
2022-08-17T14:57:53.337Z,27.20
2022-08-17T15:00:20.397Z,27.20
2022-08-17T15:02:53.756Z,27.00
2022-08-17T15:05:23.285Z,26.90
2022-08-17T15:07:50.493Z,26.90
2022-08-17T15:10:17.722Z,26.80
2022-08-17T15:12:44.897Z,26.70
2022-08-17T15:15:15.208Z,26.60
2022-08-17T15:17:46.011Z,26.50
2022-08-17T15:20:20.695Z,26.40
2022-08-17T15:22:55.453Z,26.40
2022-08-17T15:25:24.160Z,26.50
2022-08-17T15:27:51.537Z,26.60
2022-08-17T15:30:18.661Z,26.50
2022-08-17T15:32:51.225Z,26.60
2022-08-17T15:35:27.297Z,26.50
2022-08-17T15:38:11.227Z,26.50
2022-08-17T15:40:42.668Z,26.50
2022-08-17T15:43:12.479Z,26.40
2022-08-17T15:45:40.175Z,26.40
2022-08-17T15:48:07.331Z,26.30
2022-08-17T15:50:34.502Z,26.30
2022-08-17T15:53:02.412Z,26.20
2022-08-17T15:55:30.188Z,26.10
2022-08-17T15:57:57.180Z,26.00
2022-08-17T16:00:24.639Z,25.90
2022-08-17T16:03:14.736Z,25.90
2022-08-17T16:05:41.063Z,25.80
2022-08-17T16:08:08.792Z,25.60
2022-08-17T16:10:36.282Z,25.50
2022-08-17T16:13:04.261Z,25.40
2022-08-17T16:15:32.158Z,25.20
2022-08-17T16:17:59.456Z,25.10
2022-08-17T16:20:26.897Z,25.00
2022-08-17T16:22:54.647Z,25.00
2022-08-17T16:25:47.171Z,24.90
2022-08-17T16:28:15.911Z,24.80
2022-08-17T16:30:43.162Z,24.70
2022-08-17T16:33:11.609Z,24.70
2022-08-17T16:35:38.981Z,24.50
2022-08-17T16:38:07.309Z,24.50
2022-08-17T16:40:35.869Z,24.40
2022-08-17T16:43:04.011Z,24.40
2022-08-17T16:45:36.811Z,24.40
2022-08-17T16:48:04.507Z,24.50
2022-08-17T16:50:32.389Z,24.50
2022-08-17T16:53:03.272Z,24.60
2022-08-17T16:55:30.426Z,24.60
2022-08-17T16:57:57.257Z,24.70
2022-08-17T17:00:24.097Z,24.60
2022-08-17T17:02:51.614Z,24.60
2022-08-17T17:05:51.435Z,24.50
2022-08-17T17:08:27.188Z,24.30
2022-08-17T17:10:56.251Z,24.10
2022-08-17T17:13:48.950Z,24.00
2022-08-17T17:16:23.937Z,23.90
2022-08-17T17:19:15.292Z,23.90
2022-08-17T17:22:00.275Z,23.90
2022-08-17T17:24:47.098Z,24.00
2022-08-17T17:27:42.522Z,24.00
2022-08-17T17:30:43.345Z,24.00
2022-08-17T17:33:17.813Z,24.00
2022-08-17T17:35:53.519Z,24.00
2022-08-17T17:38:34.334Z,23.90
2022-08-17T17:41:12.043Z,23.80
2022-08-17T17:43:40.807Z,23.70
2022-08-17T17:46:30.566Z,23.70
2022-08-17T17:48:58.089Z,23.60
2022-08-17T17:52:02.066Z,23.60
2022-08-17T17:54:42.283Z,23.50
2022-08-17T17:57:29.172Z,23.40
2022-08-17T18:00:08.801Z,23.30
2022-08-17T18:03:07.684Z,23.30
2022-08-17T18:05:37.362Z,23.30
2022-08-17T18:08:35.798Z,23.10
2022-08-17T18:11:26.772Z,23.10
2022-08-17T18:14:23.400Z,23.10
2022-08-17T18:16:56.361Z,23.00
2022-08-17T18:19:25.646Z,23.00
2022-08-17T18:22:02.204Z,22.90
2022-08-17T18:24:37.851Z,22.90
2022-08-17T18:27:19.547Z,22.90
2022-08-17T18:29:47.805Z,22.80
2022-08-17T18:32:34.493Z,22.70
2022-08-17T18:35:09.456Z,22.60
2022-08-17T18:37:39.352Z,22.50
2022-08-17T18:40:29.512Z,22.30
2022-08-17T18:43:07.491Z,22.20
2022-08-17T18:45:49.707Z,22.10
2022-08-17T18:48:33.398Z,22.10
2022-08-17T18:51:39.731Z,21.90
2022-08-17T18:54:22.928Z,21.80
2022-08-17T18:56:59.196Z,21.70
2022-08-17T18:59:31.438Z,21.60
2022-08-17T19:02:24.233Z,21.60
2022-08-17T19:05:23.445Z,21.50
2022-08-17T19:07:50.462Z,21.40
2022-08-17T19:10:20.200Z,21.30
2022-08-17T19:13:12.923Z,21.20
2022-08-17T19:16:12.299Z,21.00
2022-08-17T19:18:47.380Z,20.90
2022-08-17T19:21:30.493Z,20.90
2022-08-17T19:24:19.689Z,20.80
2022-08-17T19:27:18.030Z,20.80
2022-08-17T19:29:52.734Z,20.60
2022-08-17T19:32:30.781Z,20.60
2022-08-17T19:34:58.102Z,20.50
2022-08-17T19:37:38.937Z,20.50
2022-08-17T19:40:54.188Z,20.50
2022-08-17T19:43:36.238Z,20.40
2022-08-17T19:46:48.486Z,20.30
2022-08-17T19:49:40.683Z,20.20
2022-08-17T19:52:42.470Z,20.20
2022-08-17T19:55:43.854Z,20.10
2022-08-17T19:58:19.613Z,20.00
2022-08-17T20:00:51.142Z,19.90
2022-08-17T20:03:25.811Z,19.80
2022-08-17T20:06:13.706Z,19.60
2022-08-17T20:09:14.933Z,19.50
2022-08-17T20:11:54.609Z,19.40
2022-08-17T20:14:55.043Z,19.30
2022-08-17T20:17:28.402Z,19.30
2022-08-17T20:20:37.702Z,19.20
2022-08-17T20:23:13.298Z,18.90
2022-08-17T20:26:07.079Z,18.80
2022-08-17T20:28:36.008Z,18.70
2022-08-17T20:31:25.486Z,18.70
2022-08-17T20:33:55.791Z,18.50
2022-08-17T20:36:24.758Z,18.30
2022-08-17T20:38:55.841Z,18.20
2022-08-17T20:41:28.717Z,18.10
2022-08-17T20:43:58.929Z,18.00
2022-08-17T20:46:38.244Z,18.00
2022-08-17T20:49:11.184Z,17.90
2022-08-17T20:51:44.963Z,17.90
2022-08-17T20:54:28.148Z,17.80
2022-08-17T20:56:57.840Z,17.70
2022-08-17T20:59:28.569Z,17.60
2022-08-17T21:02:17.503Z,17.60
2022-08-17T21:04:52.794Z,17.60
2022-08-17T21:07:43.359Z,17.60
2022-08-17T21:10:15.910Z,17.50
2022-08-17T21:12:50.026Z,17.40
2022-08-17T21:15:28.528Z,17.40
2022-08-17T21:18:00.971Z,17.40
2022-08-17T21:21:01.551Z,17.30
2022-08-17T21:23:53.382Z,17.30
2022-08-17T21:26:50.781Z,17.30
2022-08-17T21:29:32.465Z,17.20
2022-08-17T21:32:03.742Z,17.30
2022-08-17T21:34:38.113Z,17.20
2022-08-17T21:37:29.401Z,17.30
2022-08-17T21:39:58.633Z,17.30
2022-08-17T21:42:32.104Z,17.20
2022-08-17T21:45:31.189Z,17.30
2022-08-17T21:48:20.688Z,17.30
2022-08-17T21:51:06.771Z,17.40
2022-08-17T21:53:42.639Z,17.40
2022-08-17T21:56:12.611Z,17.50
2022-08-17T21:58:47.844Z,17.50
2022-08-17T22:01:23.785Z,17.50
2022-08-17T22:04:25.699Z,17.50
2022-08-17T22:06:57.085Z,17.50
2022-08-17T22:09:34.284Z,17.40
2022-08-17T22:12:09.266Z,17.40
2022-08-17T22:14:52.154Z,17.40
2022-08-17T22:17:25.683Z,17.50
2022-08-17T22:20:01.448Z,17.50
2022-08-17T22:22:56.582Z,17.50
2022-08-17T22:25:25.814Z,17.60
2022-08-17T22:27:55.506Z,17.50
2022-08-17T22:30:35.931Z,17.50
2022-08-17T22:33:34.789Z,17.50
2022-08-17T22:36:25.173Z,17.50
2022-08-17T22:38:55.316Z,17.40
2022-08-17T22:41:46.517Z,17.40
2022-08-17T22:44:24.085Z,17.40
2022-08-17T22:46:53.327Z,17.40
2022-08-17T22:49:53.328Z,17.40
2022-08-17T22:53:14.567Z,17.30
2022-08-17T22:56:16.983Z,17.30
2022-08-17T22:59:17.392Z,17.30
2022-08-17T23:02:05.282Z,17.20
2022-08-17T23:04:39.367Z,17.20
2022-08-17T23:07:09.355Z,17.10
2022-08-17T23:09:36.345Z,17.10
2022-08-17T23:12:11.790Z,17.10
2022-08-17T23:14:41.206Z,17.10
2022-08-17T23:17:08.747Z,17.00
2022-08-17T23:19:35.696Z,17.00
2022-08-17T23:22:06.043Z,16.90
2022-08-17T23:24:37.747Z,17.00
2022-08-17T23:27:07.379Z,16.90
2022-08-17T23:29:35.571Z,16.90
2022-08-17T23:32:04.747Z,16.90
2022-08-17T23:34:31.733Z,17.00
2022-08-17T23:36:58.644Z,17.00
2022-08-17T23:39:27.959Z,17.00
2022-08-17T23:41:57.796Z,16.90
2022-08-17T23:44:25.074Z,16.90
2022-08-17T23:46:52.642Z,16.90
2022-08-17T23:49:20.184Z,17.00
2022-08-17T23:51:48.815Z,17.00
2022-08-17T23:54:21.854Z,17.00
2022-08-17T23:56:48.814Z,17.00
2022-08-17T23:59:17.868Z,16.90
